createdAt,value
2022-10-22T00:03:25.963Z,64.87
2022-10-22T00:08:28.708Z,65.87
2022-10-22T00:13:30.897Z,65.84
2022-10-22T00:18:33.249Z,66.17
2022-10-22T00:23:36.021Z,65.85
2022-10-22T00:28:39.081Z,65.97
2022-10-22T00:33:42.164Z,65.84
2022-10-22T00:38:44.410Z,65.49
2022-10-22T00:43:59.558Z,65.69
2022-10-22T00:49:04.686Z,65.95
2022-10-22T00:54:09.207Z,65.82
2022-10-22T00:59:14.375Z,66.25
2022-10-22T01:04:17.488Z,66.30
2022-10-22T01:09:37.134Z,65.89
2022-10-22T01:14:57.507Z,65.88
2022-10-22T01:20:18.272Z,65.43
2022-10-22T01:25:38.868Z,65.95
2022-10-22T01:30:42.842Z,66.49
2022-10-22T01:35:46.072Z,65.67
2022-10-22T01:40:49.989Z,65.96
2022-10-22T01:45:57.098Z,65.46
2022-10-22T01:51:29.970Z,65.40
2022-10-22T01:57:01.286Z,65.52
2022-10-22T02:02:12.410Z,65.66
2022-10-22T02:07:18.887Z,65.69
2022-10-22T02:12:23.312Z,65.20
2022-10-22T02:17:29.730Z,65.38
2022-10-22T02:22:32.644Z,65.93
2022-10-22T02:27:45.913Z,66.13
2022-10-22T02:32:54.747Z,65.88
2022-10-22T02:37:58.985Z,65.81
2022-10-22T02:43:01.409Z,65.47
2022-10-22T02:48:04.459Z,66.14
2022-10-22T02:53:06.720Z,66.04
2022-10-22T02:58:08.946Z,65.84
2022-10-22T03:03:11.333Z,66.50
2022-10-22T03:08:13.605Z,66.21
2022-10-22T03:13:15.957Z,66.54
2022-10-22T03:18:18.674Z,67.09
2022-10-22T03:23:21.048Z,66.87
2022-10-22T03:28:23.462Z,66.75
2022-10-22T03:33:25.724Z,66.76
2022-10-22T03:38:27.975Z,67.01
2022-10-22T03:43:30.255Z,67.24
2022-10-22T03:48:32.503Z,67.49
2022-10-22T03:53:34.930Z,67.46
2022-10-22T03:58:38.778Z,66.81
2022-10-22T04:03:41.567Z,67.42
2022-10-22T04:08:45.306Z,67.63
2022-10-22T04:13:47.562Z,67.51
2022-10-22T04:18:50.817Z,67.18
2022-10-22T04:23:54.103Z,67.36
2022-10-22T04:28:56.406Z,67.29
2022-10-22T04:34:00.878Z,67.34
2022-10-22T04:39:04.263Z,66.57
2022-10-22T04:44:11.101Z,67.04
2022-10-22T04:49:19.152Z,67.59
2022-10-22T04:54:21.498Z,68.34
2022-10-22T04:59:23.870Z,67.81
2022-10-22T05:04:26.190Z,67.13
2022-10-22T05:09:28.603Z,67.66
2022-10-22T05:14:30.846Z,67.55
2022-10-22T05:19:33.839Z,67.15
2022-10-22T05:24:37.617Z,67.86
2022-10-22T05:29:39.943Z,67.30
2022-10-22T05:34:42.143Z,67.47
2022-10-22T05:39:44.342Z,67.79
2022-10-22T05:44:46.526Z,68.12
2022-10-22T05:49:49.585Z,67.35
2022-10-22T05:54:52.027Z,68.02
2022-10-22T05:59:54.205Z,67.51
2022-10-22T06:04:56.449Z,66.92
2022-10-22T06:10:00.002Z,67.39
2022-10-22T06:15:02.251Z,67.25
2022-10-22T06:25:13.167Z,67.06
2022-10-22T06:30:15.451Z,67.07
2022-10-22T06:35:17.853Z,66.92
2022-10-22T06:40:20.177Z,66.84
2022-10-22T06:45:22.595Z,67.05
2022-10-22T06:50:25.028Z,66.95
2022-10-22T06:55:27.329Z,66.96
2022-10-22T07:00:29.783Z,66.93
2022-10-22T07:05:34.686Z,66.53
2022-10-22T07:10:36.909Z,66.37
2022-10-22T07:15:39.130Z,66.58
2022-10-22T07:20:41.411Z,66.44
2022-10-22T07:25:43.860Z,66.08
2022-10-22T07:30:46.578Z,65.79
2022-10-22T07:35:49.199Z,65.70
2022-10-22T07:40:51.498Z,65.82
2022-10-22T07:45:56.201Z,65.25
2022-10-22T07:50:58.793Z,65.46
2022-10-22T07:56:01.269Z,65.83
2022-10-22T08:01:06.339Z,65.43
2022-10-22T08:06:09.953Z,65.21
2022-10-22T08:11:12.963Z,64.82
2022-10-22T08:16:15.919Z,64.28
2022-10-22T08:21:18.325Z,64.13
2022-10-22T08:26:21.620Z,63.27
2022-10-22T08:31:25.403Z,63.41
2022-10-22T08:36:27.821Z,63.14
2022-10-22T08:41:30.418Z,62.48
2022-10-22T08:47:01.542Z,62.09
2022-10-22T08:52:04.310Z,61.77
2022-10-22T08:57:09.521Z,61.54
2022-10-22T09:02:39.736Z,60.91
2022-10-22T09:07:50.399Z,60.80
2022-10-22T09:12:53.092Z,60.35
2022-10-22T09:18:05.232Z,59.95
2022-10-22T09:23:22.438Z,59.66
2022-10-22T09:28:25.070Z,59.36
2022-10-22T09:33:31.257Z,58.31
2022-10-22T09:38:39.517Z,58.26
2022-10-22T09:43:41.910Z,57.86
2022-10-22T09:48:49.485Z,57.18
2022-10-22T09:54:00.526Z,57.35
2022-10-22T09:59:03.784Z,56.64
2022-10-22T10:04:10.005Z,56.45
2022-10-22T10:09:18.614Z,56.18
2022-10-22T10:14:39.052Z,55.78
2022-10-22T10:19:47.964Z,55.86
2022-10-22T10:25:11.912Z,55.65
2022-10-22T10:30:18.494Z,54.61
2022-10-22T10:35:26.657Z,54.43
2022-10-22T10:40:52.131Z,53.31
2022-10-22T10:46:13.022Z,53.31
2022-10-22T10:51:47.561Z,53.12
2022-10-22T10:56:56.373Z,52.36
2022-10-22T11:02:20.327Z,51.97
2022-10-22T11:07:34.762Z,51.21
2022-10-22T11:12:43.339Z,51.48
2022-10-22T11:17:49.399Z,51.52
2022-10-22T11:23:21.044Z,50.88
2022-10-22T11:28:34.626Z,50.61
2022-10-22T11:33:57.309Z,50.26
2022-10-22T11:39:07.511Z,49.64
2022-10-22T11:44:21.332Z,48.68
2022-10-22T11:49:41.839Z,48.58
2022-10-22T11:54:45.588Z,47.29
2022-10-22T11:59:50.141Z,47.00
2022-10-22T12:04:52.465Z,46.49
2022-10-22T12:09:54.893Z,46.22
2022-10-22T12:14:58.611Z,45.74
2022-10-22T12:20:14.248Z,46.06
2022-10-22T12:25:26.258Z,44.99
2022-10-22T12:30:32.215Z,44.16
2022-10-22T12:35:43.857Z,43.67
2022-10-22T12:40:48.707Z,43.55
2022-10-22T12:45:53.330Z,43.67
2022-10-22T12:50:59.627Z,43.39
2022-10-22T12:56:05.578Z,43.33
2022-10-22T13:01:11.149Z,42.94
2022-10-22T13:06:19.474Z,42.48
2022-10-22T13:11:21.989Z,42.41
2022-10-22T13:16:26.671Z,41.85
2022-10-22T13:21:39.165Z,41.87
2022-10-22T13:26:41.430Z,41.93
2022-10-22T13:31:53.177Z,41.58
2022-10-22T13:36:55.790Z,40.96
2022-10-22T13:41:58.641Z,40.17
2022-10-22T13:47:01.213Z,40.25
2022-10-22T13:52:06.085Z,40.28
2022-10-22T13:57:11.302Z,39.65
2022-10-22T14:02:14.797Z,39.05
2022-10-22T14:07:17.869Z,38.65
2022-10-22T14:12:23.433Z,38.60
2022-10-22T14:17:32.379Z,38.57
2022-10-22T14:22:34.977Z,38.29
2022-10-22T14:27:39.096Z,38.08
2022-10-22T14:32:42.037Z,37.70
2022-10-22T14:37:45.198Z,37.29
2022-10-22T14:42:49.849Z,36.34
2022-10-22T14:47:56.157Z,36.88
2022-10-22T14:53:00.646Z,36.76
2022-10-22T14:58:03.331Z,37.14
2022-10-22T15:03:05.833Z,37.30
2022-10-22T15:08:08.508Z,37.67
2022-10-22T15:13:11.021Z,38.71
2022-10-22T15:18:13.447Z,38.80
2022-10-22T15:23:15.851Z,39.27
2022-10-22T15:28:18.350Z,39.27
2022-10-22T15:33:21.088Z,39.90
2022-10-22T15:43:32.502Z,41.38
2022-10-22T15:48:34.849Z,41.37
2022-10-22T15:53:37.409Z,42.41
2022-10-22T15:58:40.750Z,42.72
2022-10-22T16:03:43.668Z,43.54
2022-10-22T16:08:49.487Z,43.97
2022-10-22T16:13:59.931Z,44.87
2022-10-22T16:19:03.443Z,45.29
2022-10-22T16:24:07.276Z,45.74
2022-10-22T16:29:12.042Z,46.11
2022-10-22T16:34:14.627Z,46.46
2022-10-22T16:39:17.518Z,46.96
2022-10-22T16:44:19.982Z,47.37
2022-10-22T16:49:22.810Z,47.59
2022-10-22T16:54:25.200Z,48.01
2022-10-22T16:59:28.466Z,48.09
2022-10-22T17:04:31.945Z,48.37
2022-10-22T17:09:34.750Z,48.37
2022-10-22T17:14:37.991Z,48.84
2022-10-22T17:19:41.033Z,48.69
2022-10-22T17:24:44.723Z,49.33
2022-10-22T17:29:47.824Z,49.92
2022-10-22T17:34:50.922Z,50.55
2022-10-22T17:39:53.687Z,51.13
2022-10-22T17:44:56.886Z,51.61
2022-10-22T17:50:00.993Z,52.40
2022-10-22T17:55:05.098Z,53.00
2022-10-22T18:00:08.984Z,53.53
2022-10-22T18:05:13.283Z,54.20
2022-10-22T18:10:16.342Z,54.81
2022-10-22T18:15:36.844Z,55.39
2022-10-22T18:20:40.588Z,55.81
2022-10-22T18:25:43.807Z,56.24
2022-10-22T18:30:48.569Z,56.74
2022-10-22T18:35:55.920Z,57.11
2022-10-22T18:40:59.049Z,57.50
2022-10-22T18:46:03.183Z,57.93
2022-10-22T18:51:09.522Z,58.32
2022-10-22T18:56:13.200Z,58.23
2022-10-22T19:01:20.409Z,58.75
2022-10-22T19:06:34.415Z,58.84
2022-10-22T19:11:39.633Z,59.42
2022-10-22T19:16:42.793Z,59.41
2022-10-22T19:21:45.860Z,59.63
2022-10-22T19:26:51.290Z,59.68
2022-10-22T19:31:55.574Z,60.55
2022-10-22T19:36:59.867Z,60.03
2022-10-22T19:42:04.810Z,60.00
2022-10-22T19:47:07.385Z,59.86
2022-10-22T19:52:10.395Z,60.03
2022-10-22T19:57:17.277Z,60.13
2022-10-22T20:02:19.890Z,60.83
2022-10-22T20:07:23.038Z,60.57
2022-10-22T20:12:25.566Z,60.97
2022-10-22T20:17:28.684Z,60.79
2022-10-22T20:22:31.363Z,60.93
2022-10-22T20:27:34.006Z,60.94
2022-10-22T20:32:41.093Z,61.41
2022-10-22T20:37:43.934Z,61.15
2022-10-22T20:42:48.228Z,61.10
2022-10-22T20:47:58.690Z,61.01
2022-10-22T20:53:05.645Z,61.35
2022-10-22T20:58:08.548Z,61.77
2022-10-22T21:03:11.807Z,62.06
2022-10-22T21:08:17.897Z,61.82
2022-10-22T21:13:20.348Z,61.38
2022-10-22T21:18:22.730Z,61.95
2022-10-22T21:23:25.166Z,61.48
2022-10-22T21:33:31.662Z,61.71
2022-10-22T21:38:35.268Z,61.97
2022-10-22T21:43:39.203Z,61.69
2022-10-22T21:48:41.516Z,61.84
2022-10-22T21:53:44.776Z,61.96
2022-10-22T21:58:48.543Z,61.66
2022-10-22T22:03:53.316Z,61.73
2022-10-22T22:08:56.176Z,62.22
2022-10-22T22:13:59.397Z,62.03
2022-10-22T22:24:13.712Z,62.09
2022-10-22T22:29:16.001Z,61.50
2022-10-22T22:34:18.711Z,62.00
2022-10-22T22:39:26.039Z,61.73
2022-10-22T22:44:28.445Z,61.78
2022-10-22T22:49:30.789Z,62.00
2022-10-22T22:54:33.174Z,61.83
2022-10-22T22:59:35.670Z,61.55
2022-10-22T23:04:38.125Z,61.51
2022-10-22T23:09:40.593Z,61.35
2022-10-22T23:14:42.915Z,61.39
2022-10-22T23:19:45.414Z,61.30
2022-10-22T23:24:47.788Z,61.65
2022-10-22T23:29:50.331Z,61.56
2022-10-22T23:34:52.742Z,61.34
2022-10-22T23:39:55.282Z,61.61
2022-10-22T23:44:57.636Z,61.45
2022-10-22T23:49:59.925Z,61.89
2022-10-22T23:55:02.351Z,61.72
